createdAt,value
2023-09-22T00:00:57.408Z,99750.50
2023-09-22T00:03:32.665Z,99761.13
2023-09-22T00:06:05.806Z,99752.41
2023-09-22T00:08:38.061Z,99763.91
2023-09-22T00:11:10.331Z,99771.91
2023-09-22T00:13:42.812Z,99790.84
2023-09-22T00:16:15.446Z,99787.78
2023-09-22T00:18:47.738Z,99785.06
2023-09-22T00:21:20.784Z,99783.28
2023-09-22T00:23:53.359Z,99784.47
2023-09-22T00:26:25.936Z,99787.41
2023-09-22T00:28:58.428Z,99780.13
2023-09-22T00:31:30.642Z,99799.25
2023-09-22T00:34:02.840Z,99794.94
2023-09-22T00:36:35.136Z,99796.50
2023-09-22T00:39:07.336Z,99799.28
2023-09-22T00:41:39.526Z,99797.28
2023-09-22T00:44:11.629Z,99795.63
2023-09-22T00:46:43.995Z,99803.47
2023-09-22T00:49:16.196Z,99807.19
2023-09-22T00:51:48.558Z,99815.03
2023-09-22T00:54:21.392Z,99808.22
2023-09-22T00:56:54.377Z,99803.06
2023-09-22T00:59:27.340Z,99797.66
2023-09-22T01:01:59.690Z,99802.94
2023-09-22T01:04:32.052Z,99800.50
2023-09-22T01:07:05.007Z,99806.88
2023-09-22T01:09:43.326Z,99818.28
2023-09-22T01:12:15.586Z,99821.06
2023-09-22T01:14:47.980Z,99819.66
2023-09-22T01:17:20.194Z,99817.88
2023-09-22T01:19:52.308Z,99814.28
2023-09-22T01:22:24.428Z,99821.28
2023-09-22T01:24:58.348Z,99817.00
2023-09-22T01:27:30.464Z,99807.38
2023-09-22T01:30:06.344Z,99813.16
2023-09-22T01:32:41.474Z,99810.75
2023-09-22T01:35:14.333Z,99814.94
2023-09-22T01:37:57.732Z,99820.00
2023-09-22T01:40:29.801Z,99826.56
2023-09-22T01:43:01.947Z,99821.44
2023-09-22T01:45:34.159Z,99826.50
2023-09-22T01:48:06.866Z,99830.50
2023-09-22T01:50:41.660Z,99822.34
2023-09-22T01:53:14.046Z,99824.84
2023-09-22T01:55:48.235Z,99824.63
2023-09-22T01:58:22.056Z,99816.88
2023-09-22T02:00:54.972Z,99819.56
2023-09-22T02:03:27.303Z,99807.78
2023-09-22T02:06:00.861Z,99811.91
2023-09-22T02:08:33.718Z,99829.69
2023-09-22T02:11:06.965Z,99835.41
2023-09-22T02:13:39.772Z,99838.03
2023-09-22T02:16:11.994Z,99836.47
2023-09-22T02:18:44.557Z,99841.69
2023-09-22T02:21:18.643Z,99845.03
2023-09-22T02:23:50.830Z,99835.06
2023-09-22T02:26:23.187Z,99842.53
2023-09-22T02:28:55.391Z,99846.91
2023-09-22T02:31:29.149Z,99853.25
2023-09-22T02:34:01.356Z,99854.47
2023-09-22T02:36:33.761Z,99851.69
2023-09-22T02:39:08.041Z,99864.94
2023-09-22T02:41:40.142Z,99863.38
2023-09-22T02:44:13.520Z,99860.38
2023-09-22T02:46:46.843Z,99862.38
2023-09-22T02:49:19.076Z,99868.56
2023-09-22T02:51:51.411Z,99884.00
2023-09-22T02:54:24.056Z,99887.63
2023-09-22T02:56:57.120Z,99884.91
2023-09-22T02:59:29.265Z,99873.50
2023-09-22T03:02:01.420Z,99859.59
2023-09-22T03:04:37.344Z,99854.97
2023-09-22T03:07:09.448Z,99852.97
2023-09-22T03:09:41.686Z,99846.03
2023-09-22T03:12:13.959Z,99839.84
2023-09-22T03:14:49.950Z,99832.63
2023-09-22T03:17:22.150Z,99843.47
2023-09-22T03:19:54.257Z,99850.47
2023-09-22T03:22:27.499Z,99859.22
2023-09-22T03:25:01.367Z,99858.38
2023-09-22T03:27:38.086Z,99859.59
2023-09-22T03:30:11.219Z,99849.81
2023-09-22T03:32:43.436Z,99857.16
2023-09-22T03:35:15.691Z,99851.03
2023-09-22T03:37:50.454Z,99847.59
2023-09-22T03:40:42.308Z,99837.69
2023-09-22T03:43:16.146Z,99856.59
2023-09-22T03:45:54.725Z,99849.22
2023-09-22T03:48:26.998Z,99849.28
2023-09-22T03:50:59.319Z,99847.25
2023-09-22T03:53:34.137Z,99849.22
2023-09-22T03:56:07.198Z,99862.09
2023-09-22T03:58:39.447Z,99859.19
2023-09-22T04:01:11.646Z,99858.84
2023-09-22T04:03:45.593Z,99845.56
2023-09-22T04:06:20.097Z,99853.16
2023-09-22T04:08:52.958Z,99853.28
2023-09-22T04:11:25.402Z,99849.06
2023-09-22T04:13:57.445Z,99861.88
2023-09-22T04:16:30.419Z,99845.84
2023-09-22T04:19:02.625Z,99849.84
2023-09-22T04:21:36.849Z,99850.28
2023-09-22T04:24:08.942Z,99850.78
2023-09-22T04:26:44.042Z,99849.09
2023-09-22T04:29:16.117Z,99852.06
2023-09-22T04:31:49.613Z,99861.63
2023-09-22T04:34:21.754Z,99857.84
2023-09-22T04:36:54.375Z,99872.56
2023-09-22T04:39:26.494Z,99876.31
2023-09-22T04:41:59.571Z,99872.75
2023-09-22T04:44:32.268Z,99884.63
2023-09-22T04:47:04.412Z,99886.13
2023-09-22T04:49:36.578Z,99887.00
2023-09-22T04:52:09.486Z,99883.28
2023-09-22T04:54:41.744Z,99876.84
2023-09-22T04:57:13.953Z,99887.88
2023-09-22T04:59:46.038Z,99889.59
2023-09-22T05:02:18.266Z,99896.16
2023-09-22T05:04:51.140Z,99892.41
2023-09-22T05:07:23.368Z,99896.38
2023-09-22T05:09:55.779Z,99906.13
2023-09-22T05:12:27.976Z,99926.03
2023-09-22T05:15:02.248Z,99928.41
2023-09-22T05:17:36.075Z,99937.38
2023-09-22T05:20:14.376Z,99925.44
2023-09-22T05:22:46.850Z,99929.66
2023-09-22T05:25:19.647Z,99925.50
2023-09-22T05:27:51.932Z,99921.22
2023-09-22T05:30:24.521Z,99918.78
2023-09-22T05:32:56.656Z,99923.72
2023-09-22T05:35:28.796Z,99926.28
2023-09-22T05:38:02.805Z,99926.88
2023-09-22T05:40:35.643Z,99939.81
2023-09-22T05:43:08.549Z,99953.00
2023-09-22T05:45:40.817Z,99954.50
2023-09-22T05:48:13.391Z,99950.56
2023-09-22T05:50:45.532Z,99956.69
2023-09-22T05:53:17.631Z,99958.78
2023-09-22T05:55:49.744Z,99963.41
2023-09-22T05:58:22.037Z,99965.69
2023-09-22T06:00:54.172Z,99966.63
2023-09-22T06:03:26.429Z,99968.41
2023-09-22T06:05:58.795Z,99980.06
2023-09-22T06:08:31.611Z,99981.66
2023-09-22T06:11:08.100Z,99979.28
2023-09-22T06:13:41.772Z,99977.31
2023-09-22T06:16:13.991Z,99987.06
2023-09-22T06:18:46.986Z,99977.75
2023-09-22T06:21:19.346Z,99987.31
2023-09-22T06:23:52.633Z,100010.72
2023-09-22T06:26:24.805Z,100015.22
2023-09-22T06:28:57.241Z,100026.19
2023-09-22T06:31:29.466Z,100028.09
2023-09-22T06:34:01.843Z,100028.91
2023-09-22T06:36:35.042Z,100025.81
2023-09-22T06:39:09.253Z,100024.72
2023-09-22T06:41:41.799Z,100023.53
2023-09-22T06:44:14.312Z,100025.63
2023-09-22T06:46:46.515Z,100032.50
2023-09-22T06:49:19.250Z,100045.06
2023-09-22T06:51:51.902Z,100041.81
2023-09-22T06:54:24.102Z,100057.50
2023-09-22T06:56:57.276Z,100067.69
2023-09-22T06:59:29.527Z,100077.19
2023-09-22T07:02:01.665Z,100084.19
2023-09-22T07:04:34.313Z,100077.88
2023-09-22T07:07:07.726Z,100091.38
2023-09-22T07:09:40.017Z,100090.06
2023-09-22T07:12:12.151Z,100091.97
2023-09-22T07:14:44.330Z,100082.69
2023-09-22T07:17:16.487Z,100077.38
2023-09-22T07:19:48.598Z,100070.16
2023-09-22T07:22:20.834Z,100067.75
2023-09-22T07:24:53.927Z,100075.47
2023-09-22T07:27:26.330Z,100092.91
2023-09-22T07:29:58.598Z,100096.94
2023-09-22T07:32:31.681Z,100091.66
2023-09-22T07:35:04.112Z,100100.38
2023-09-22T07:37:36.366Z,100101.63
2023-09-22T07:40:11.457Z,100113.25
2023-09-22T07:42:46.231Z,100123.06
2023-09-22T07:45:18.572Z,100119.66
2023-09-22T07:47:50.898Z,100114.22
2023-09-22T07:50:23.164Z,100105.84
2023-09-22T07:52:55.264Z,100109.56
2023-09-22T07:55:27.399Z,100121.91
2023-09-22T07:57:59.681Z,100119.88
2023-09-22T08:00:32.215Z,100130.69
2023-09-22T08:03:06.070Z,100123.28
2023-09-22T08:05:38.490Z,100129.63
2023-09-22T08:08:11.933Z,100136.38
2023-09-22T08:10:45.275Z,100140.88
2023-09-22T08:13:17.686Z,100131.63
2023-09-22T08:15:49.914Z,100142.25
2023-09-22T08:18:22.145Z,100143.97
2023-09-22T08:20:55.461Z,100156.84
2023-09-22T08:23:41.989Z,100153.66
2023-09-22T08:26:19.990Z,100168.25
2023-09-22T08:28:52.241Z,100168.31
2023-09-22T08:31:27.069Z,100156.91
2023-09-22T08:33:59.269Z,100155.50
2023-09-22T08:36:32.403Z,100157.59
2023-09-22T08:39:04.959Z,100170.63
2023-09-22T08:41:40.282Z,100155.91
2023-09-22T08:44:12.860Z,100157.81
2023-09-22T08:46:46.367Z,100171.19
2023-09-22T08:49:18.661Z,100172.06
2023-09-22T08:51:51.082Z,100166.97
2023-09-22T08:54:23.377Z,100177.75
2023-09-22T08:56:56.663Z,100177.09
2023-09-22T08:59:29.238Z,100171.34
2023-09-22T09:02:02.840Z,100173.78
2023-09-22T09:04:41.231Z,100179.75
2023-09-22T09:07:18.487Z,100181.91
2023-09-22T09:09:51.101Z,100182.34
2023-09-22T09:12:23.300Z,100183.53
2023-09-22T09:14:59.629Z,100185.22
2023-09-22T09:17:31.864Z,100194.28
2023-09-22T09:20:07.160Z,100192.03
2023-09-22T09:22:40.093Z,100193.28
2023-09-22T09:25:13.538Z,100200.81
2023-09-22T09:27:45.827Z,100201.00
2023-09-22T09:30:20.354Z,100194.66
2023-09-22T09:32:52.641Z,100199.09
2023-09-22T09:35:44.099Z,100200.59
2023-09-22T09:38:30.560Z,100192.94
2023-09-22T09:41:03.289Z,100195.19
2023-09-22T09:43:36.892Z,100201.66
2023-09-22T09:46:10.740Z,100199.88
2023-09-22T09:48:46.811Z,100200.59
2023-09-22T09:51:22.158Z,100202.31
2023-09-22T09:54:01.481Z,100197.31
2023-09-22T09:56:34.621Z,100187.72
2023-09-22T09:59:09.848Z,100189.09
2023-09-22T10:01:43.341Z,100189.03
2023-09-22T10:04:22.225Z,100181.06
2023-09-22T10:06:56.213Z,100184.00
2023-09-22T10:09:32.148Z,100181.56
2023-09-22T10:12:07.098Z,100185.84
2023-09-22T10:14:48.960Z,100175.41
2023-09-22T10:17:24.249Z,100190.56
2023-09-22T10:20:02.445Z,100177.91
2023-09-22T10:22:35.006Z,100179.34
2023-09-22T10:25:15.891Z,100176.25
2023-09-22T10:28:04.052Z,100189.56
2023-09-22T10:30:46.053Z,100188.94
2023-09-22T10:33:25.244Z,100202.63
2023-09-22T10:36:01.765Z,100201.44
2023-09-22T10:38:55.341Z,100206.72
2023-09-22T10:41:27.866Z,100210.03
2023-09-22T10:44:01.506Z,100205.81
2023-09-22T10:46:34.256Z,100208.53
2023-09-22T10:49:06.581Z,100211.31
2023-09-22T10:51:45.458Z,100207.63
2023-09-22T10:54:19.692Z,100204.13
2023-09-22T10:56:53.298Z,100194.09
2023-09-22T10:59:35.143Z,100199.19
2023-09-22T11:02:07.520Z,100191.97
2023-09-22T11:04:43.653Z,100199.44
2023-09-22T11:07:34.242Z,100199.84
2023-09-22T11:10:07.638Z,100199.44
2023-09-22T11:12:39.924Z,100192.78
2023-09-22T11:15:12.119Z,100198.94
2023-09-22T11:17:49.112Z,100205.03
2023-09-22T11:20:28.467Z,100213.41
2023-09-22T11:23:01.789Z,100206.38
2023-09-22T11:25:34.049Z,100214.94
2023-09-22T11:28:07.008Z,100209.56
2023-09-22T11:30:40.808Z,100217.06
2023-09-22T11:33:17.023Z,100208.81
2023-09-22T11:35:53.877Z,100213.56
2023-09-22T11:38:33.585Z,100209.00
2023-09-22T11:41:17.825Z,100216.31
2023-09-22T11:43:53.572Z,100217.09
2023-09-22T11:46:27.837Z,100211.66
2023-09-22T11:49:01.010Z,100218.22
2023-09-22T11:52:09.201Z,100238.69
2023-09-22T11:54:41.366Z,100221.16
2023-09-22T11:57:13.668Z,100225.25
2023-09-22T11:59:46.792Z,100227.25
2023-09-22T12:02:19.071Z,100236.84
2023-09-22T12:04:51.238Z,100247.63
2023-09-22T12:07:23.488Z,100241.31
2023-09-22T12:09:56.435Z,100251.50
2023-09-22T12:12:28.565Z,100252.63
2023-09-22T12:15:01.690Z,100250.84
2023-09-22T12:17:33.939Z,100248.13
2023-09-22T12:20:07.461Z,100242.94
2023-09-22T12:22:39.699Z,100243.41
2023-09-22T12:25:11.940Z,100257.56
2023-09-22T12:27:44.074Z,100258.78
2023-09-22T12:30:16.556Z,100257.16
2023-09-22T12:32:48.701Z,100267.44
2023-09-22T12:35:20.931Z,100260.19
2023-09-22T12:37:54.238Z,100254.91
2023-09-22T12:40:27.386Z,100260.03
2023-09-22T12:42:59.534Z,100263.81
2023-09-22T12:45:34.777Z,100259.63
2023-09-22T12:48:07.657Z,100257.56
2023-09-22T12:50:40.656Z,100252.06
2023-09-22T12:53:12.737Z,100261.03
2023-09-22T12:55:44.937Z,100256.41
2023-09-22T12:58:17.191Z,100264.59
2023-09-22T13:00:50.492Z,100263.28
2023-09-22T13:03:23.068Z,100268.25
2023-09-22T13:05:55.686Z,100269.13
2023-09-22T13:08:28.815Z,100274.34
2023-09-22T13:11:03.214Z,100265.94
2023-09-22T13:13:36.330Z,100260.38
2023-09-22T13:16:11.589Z,100264.47
2023-09-22T13:18:46.366Z,100261.28
2023-09-22T13:21:19.193Z,100271.66
2023-09-22T13:23:52.951Z,100259.34
2023-09-22T13:26:25.263Z,100263.09
2023-09-22T13:28:58.247Z,100262.06
2023-09-22T13:31:30.797Z,100259.91
2023-09-22T13:34:03.802Z,100276.34
2023-09-22T13:36:36.037Z,100272.22
2023-09-22T13:39:09.847Z,100270.84
2023-09-22T13:41:42.390Z,100273.09
2023-09-22T13:44:15.036Z,100267.66
2023-09-22T13:46:48.418Z,100276.16
2023-09-22T13:49:21.294Z,100265.53
2023-09-22T13:51:53.521Z,100268.63
2023-09-22T13:54:25.683Z,100269.44
2023-09-22T13:56:57.843Z,100264.19
2023-09-22T13:59:30.046Z,100259.75
2023-09-22T14:02:02.219Z,100254.66
2023-09-22T14:04:34.538Z,100244.72
2023-09-22T14:07:06.704Z,100250.78
2023-09-22T14:09:39.037Z,100252.50
2023-09-22T14:12:11.492Z,100255.94
2023-09-22T14:14:43.667Z,100251.91
2023-09-22T14:17:16.574Z,100252.00
2023-09-22T14:19:48.929Z,100251.13
2023-09-22T14:22:21.267Z,100260.88
2023-09-22T14:24:53.889Z,100254.84
2023-09-22T14:27:26.152Z,100259.00
2023-09-22T14:29:58.369Z,100264.84
2023-09-22T14:32:30.685Z,100263.78
2023-09-22T14:35:02.833Z,100266.31
2023-09-22T14:37:35.104Z,100264.53
2023-09-22T14:40:08.040Z,100262.66
2023-09-22T14:42:40.471Z,100267.09
2023-09-22T14:45:12.812Z,100265.69
2023-09-22T14:47:48.568Z,100273.56
2023-09-22T14:50:22.522Z,100271.59
2023-09-22T14:52:55.077Z,100283.22
2023-09-22T14:55:27.388Z,100273.88
2023-09-22T14:58:01.614Z,100279.00
2023-09-22T15:00:34.111Z,100285.25
2023-09-22T15:03:06.474Z,100285.25
2023-09-22T15:05:38.628Z,100294.44
2023-09-22T15:08:11.203Z,100299.50
2023-09-22T15:10:51.943Z,100294.53
2023-09-22T15:13:25.129Z,100298.50
2023-09-22T15:15:58.267Z,100300.28
2023-09-22T15:18:30.523Z,100306.97
2023-09-22T15:21:09.939Z,100311.75
2023-09-22T15:23:43.360Z,100314.41
2023-09-22T15:26:15.606Z,100325.44
2023-09-22T15:28:48.215Z,100329.09
2023-09-22T15:31:20.757Z,100331.69
2023-09-22T15:33:53.017Z,100344.09
2023-09-22T15:36:25.245Z,100338.94
2023-09-22T15:39:00.557Z,100343.44
2023-09-22T15:41:34.292Z,100349.22
2023-09-22T15:44:06.833Z,100356.47
2023-09-22T15:46:39.063Z,100353.91
2023-09-22T15:49:12.422Z,100359.72
2023-09-22T15:51:44.808Z,100347.50
2023-09-22T15:54:17.013Z,100346.25
2023-09-22T15:56:49.214Z,100346.81
2023-09-22T15:59:21.540Z,100347.59
2023-09-22T16:01:53.896Z,100339.66
2023-09-22T16:04:26.220Z,100331.06
2023-09-22T16:06:58.480Z,100337.09
2023-09-22T16:09:30.785Z,100337.72
2023-09-22T16:12:02.896Z,100337.59
2023-09-22T16:14:35.516Z,100336.44
2023-09-22T16:17:07.695Z,100345.31
2023-09-22T16:19:39.866Z,100343.31
2023-09-22T16:22:12.022Z,100356.03
2023-09-22T16:24:44.164Z,100354.25
2023-09-22T16:27:16.419Z,100361.34
2023-09-22T16:29:49.541Z,100357.84
2023-09-22T16:32:21.791Z,100361.13
2023-09-22T16:34:54.220Z,100353.75
2023-09-22T16:37:26.730Z,100357.03
2023-09-22T16:40:04.295Z,100361.97
2023-09-22T16:42:36.722Z,100363.91
2023-09-22T16:45:10.183Z,100358.63
2023-09-22T16:47:42.524Z,100370.75
2023-09-22T16:50:16.120Z,100361.66
2023-09-22T16:52:48.538Z,100363.72
2023-09-22T16:55:21.092Z,100370.75
2023-09-22T16:57:53.462Z,100369.09
2023-09-22T17:00:25.871Z,100372.59
2023-09-22T17:02:58.230Z,100374.00
2023-09-22T17:05:33.444Z,100372.88
2023-09-22T17:08:06.784Z,100378.44
2023-09-22T17:10:43.478Z,100381.00
2023-09-22T17:13:15.792Z,100381.06
2023-09-22T17:15:48.488Z,100385.91
2023-09-22T17:18:22.877Z,100380.56
2023-09-22T17:21:03.021Z,100379.09
2023-09-22T17:23:36.723Z,100384.44
2023-09-22T17:26:09.068Z,100381.91
2023-09-22T17:28:41.779Z,100379.47
2023-09-22T17:31:15.934Z,100379.59
2023-09-22T17:33:48.212Z,100391.22
2023-09-22T17:36:20.481Z,100393.06
2023-09-22T17:38:53.298Z,100389.09
2023-09-22T17:41:26.389Z,100395.38
2023-09-22T17:43:58.880Z,100391.13
2023-09-22T17:46:31.725Z,100395.75
2023-09-22T17:49:04.936Z,100394.22
2023-09-22T17:51:37.118Z,100397.09
2023-09-22T17:54:09.228Z,100390.22
2023-09-22T17:56:42.297Z,100385.09
2023-09-22T17:59:14.510Z,100394.88
2023-09-22T18:01:52.785Z,100385.28
2023-09-22T18:04:25.272Z,100395.97
2023-09-22T18:06:58.017Z,100392.63
2023-09-22T18:09:30.672Z,100388.34
2023-09-22T18:12:03.771Z,100386.13
2023-09-22T18:14:36.453Z,100383.66
2023-09-22T18:17:08.619Z,100381.19
2023-09-22T18:19:40.841Z,100389.28
2023-09-22T18:22:13.034Z,100393.94
2023-09-22T18:24:45.581Z,100387.25
2023-09-22T18:27:17.882Z,100395.41
2023-09-22T18:29:50.813Z,100395.56
2023-09-22T18:32:23.164Z,100401.94
2023-09-22T18:34:55.994Z,100402.09
2023-09-22T18:37:28.353Z,100411.03
2023-09-22T18:40:00.839Z,100414.69
2023-09-22T18:42:33.003Z,100413.19
2023-09-22T18:45:07.251Z,100412.44
2023-09-22T18:47:41.433Z,100414.22
2023-09-22T18:50:13.631Z,100420.41
2023-09-22T18:52:45.799Z,100418.78
2023-09-22T18:55:18.135Z,100425.94
2023-09-22T18:57:50.271Z,100425.25
2023-09-22T19:00:24.097Z,100427.06
2023-09-22T19:02:57.454Z,100427.13
2023-09-22T19:05:29.648Z,100423.69
2023-09-22T19:08:01.984Z,100435.16
2023-09-22T19:10:41.067Z,100422.06
2023-09-22T19:13:13.374Z,100433.59
2023-09-22T19:15:45.633Z,100425.72
2023-09-22T19:18:18.004Z,100430.19
2023-09-22T19:20:50.145Z,100432.13
2023-09-22T19:23:23.505Z,100434.00
2023-09-22T19:25:55.650Z,100434.06
2023-09-22T19:28:28.745Z,100435.88
2023-09-22T19:31:01.049Z,100436.88
2023-09-22T19:33:33.977Z,100436.16
2023-09-22T19:36:06.464Z,100431.84
2023-09-22T19:38:38.837Z,100428.47
2023-09-22T19:41:14.035Z,100421.41
2023-09-22T19:43:46.512Z,100424.09
2023-09-22T19:46:19.860Z,100423.34
2023-09-22T19:48:53.020Z,100425.88
2023-09-22T19:51:25.254Z,100430.41
2023-09-22T19:53:57.442Z,100435.72
2023-09-22T19:56:29.782Z,100435.88
2023-09-22T19:59:02.318Z,100446.50
2023-09-22T20:01:34.765Z,100436.84
2023-09-22T20:04:07.728Z,100441.28
2023-09-22T20:06:40.004Z,100440.38
2023-09-22T20:09:12.142Z,100446.50
2023-09-22T20:11:44.252Z,100434.34
2023-09-22T20:14:16.535Z,100448.59
2023-09-22T20:16:48.712Z,100442.50
2023-09-22T20:19:21.032Z,100450.50
2023-09-22T20:21:53.139Z,100451.31
2023-09-22T20:24:25.399Z,100449.50
2023-09-22T20:26:59.243Z,100447.72
2023-09-22T20:29:31.479Z,100450.31
2023-09-22T20:32:03.838Z,100452.94
2023-09-22T20:34:36.116Z,100459.03
2023-09-22T20:37:08.349Z,100444.84
2023-09-22T20:39:40.846Z,100448.47
2023-09-22T20:42:13.002Z,100445.91
2023-09-22T20:44:45.867Z,100440.47
2023-09-22T20:47:18.138Z,100437.75
2023-09-22T20:49:50.359Z,100439.47
2023-09-22T20:52:22.613Z,100428.06
2023-09-22T20:54:57.450Z,100427.06
2023-09-22T20:57:29.684Z,100432.16
2023-09-22T21:00:02.212Z,100428.53
2023-09-22T21:02:34.538Z,100422.28
2023-09-22T21:05:10.425Z,100424.88
2023-09-22T21:07:43.410Z,100428.38
2023-09-22T21:10:15.743Z,100427.44
2023-09-22T21:12:48.002Z,100425.69
2023-09-22T21:15:20.382Z,100431.91
2023-09-22T21:17:55.038Z,100428.38
2023-09-22T21:20:29.264Z,100430.94
2023-09-22T21:23:01.622Z,100435.34
2023-09-22T21:25:33.863Z,100433.53
2023-09-22T21:28:06.765Z,100423.78
2023-09-22T21:30:38.894Z,100437.06
2023-09-22T21:33:11.760Z,100437.78
2023-09-22T21:35:43.998Z,100440.38
2023-09-22T21:38:16.231Z,100437.78
2023-09-22T21:40:48.535Z,100436.22
2023-09-22T21:43:22.550Z,100441.50
2023-09-22T21:45:54.915Z,100446.81
2023-09-22T21:48:27.216Z,100448.38
2023-09-22T21:50:59.410Z,100453.81
2023-09-22T21:53:31.505Z,100448.69
2023-09-22T21:56:04.165Z,100462.03
2023-09-22T21:58:36.345Z,100455.13
2023-09-22T22:01:11.566Z,100479.03
2023-09-22T22:03:45.739Z,100492.69
2023-09-22T22:06:18.025Z,100495.66
2023-09-22T22:08:50.168Z,100496.31
2023-09-22T22:11:22.440Z,100490.69
2023-09-22T22:13:55.720Z,100490.22
2023-09-22T22:16:28.720Z,100490.47
2023-09-22T22:19:02.244Z,100484.66
2023-09-22T22:21:38.133Z,100484.66
2023-09-22T22:24:11.622Z,100484.56
2023-09-22T22:26:44.579Z,100484.75
2023-09-22T22:29:17.656Z,100483.09
2023-09-22T22:31:49.958Z,100479.53
2023-09-22T22:34:22.490Z,100478.41
2023-09-22T22:36:54.646Z,100476.31
2023-09-22T22:39:26.946Z,100474.34
2023-09-22T22:42:01.248Z,100478.50
2023-09-22T22:44:33.682Z,100481.88
2023-09-22T22:47:08.407Z,100485.38
2023-09-22T22:49:41.086Z,100486.22
2023-09-22T22:52:13.578Z,100482.59
2023-09-22T22:54:48.092Z,100494.81
2023-09-22T22:57:23.034Z,100491.31
2023-09-22T22:59:55.753Z,100490.41
2023-09-22T23:02:28.927Z,100491.22
2023-09-22T23:05:01.240Z,100488.44
2023-09-22T23:07:34.343Z,100486.69
2023-09-22T23:10:08.454Z,100484.19
2023-09-22T23:12:44.271Z,100488.50
2023-09-22T23:15:17.709Z,100489.34
2023-09-22T23:17:50.085Z,100490.22
2023-09-22T23:20:35.213Z,100486.59
2023-09-22T23:23:07.468Z,100492.81
2023-09-22T23:25:40.502Z,100486.59
2023-09-22T23:28:13.449Z,100487.50
2023-09-22T23:30:45.612Z,100484.88
2023-09-22T23:33:18.138Z,100494.53
2023-09-22T23:35:51.102Z,100495.31
2023-09-22T23:38:23.981Z,100496.13
2023-09-22T23:40:56.702Z,100489.88
2023-09-22T23:43:30.535Z,100495.09
2023-09-22T23:46:02.878Z,100506.59
2023-09-22T23:48:36.802Z,100505.78
2023-09-22T23:51:09.548Z,100518.91
2023-09-22T23:53:43.085Z,100519.88
2023-09-22T23:56:16.539Z,100524.34
2023-09-22T23:58:49.525Z,100527.91
